Big Bear, California
Current Conditions -  °F | °C
As of 12:15 AM on Monday 26 Jan 2015 (Local Time) from KL35 Reporting Station
Clear Clear  
Wind Chill: 42°   Ceiling: Unl
Heat Index: 46°   Visibility: 10mi
Dew Point: 14°   Wind: 8mph
Humidity: 27%   Direction: 30°NNE
Pressure: 30.26"   Gusts: 16mph
Location:  34.1118°N, 116.755°W
Report Text: KL35 260815Z AUTO 03007G14KT 10SM CLR 08/M10 A3026 RMK AO2
Loading
Personal Weather Stations






























Interactive Weather Map New forecast layout! Learn more

10-Day Weather Forecast

Advertisements
Track Severe Weather on mobile